createdAt,value
2018-03-28T00:00:49.584Z,27.73
2018-03-28T00:01:52.879Z,28.48
2018-03-28T00:02:56.170Z,26.65
2018-03-28T00:03:58.726Z,26.52
2018-03-28T00:05:02.018Z,26.08
2018-03-28T00:06:04.545Z,26.15
2018-03-28T00:07:07.086Z,27.02
2018-03-28T00:08:09.615Z,27.00
2018-03-28T00:09:12.146Z,27.92
2018-03-28T00:10:14.669Z,25.90
2018-03-28T00:11:17.229Z,26.37
2018-03-28T00:12:19.745Z,27.85
2018-03-28T00:13:22.282Z,26.83
2018-03-28T00:14:24.821Z,27.52
2018-03-28T00:15:27.393Z,25.90
2018-03-28T00:16:29.971Z,25.83
2018-03-28T00:17:32.494Z,26.60
2018-03-28T00:18:35.777Z,27.48
2018-03-28T00:19:39.101Z,25.75
2018-03-28T00:20:41.653Z,27.92
2018-03-28T00:21:44.208Z,25.77
2018-03-28T00:22:46.737Z,26.37
2018-03-28T00:23:49.286Z,25.27
2018-03-28T00:24:51.814Z,25.33
2018-03-28T00:25:54.333Z,26.02
2018-03-28T00:26:56.894Z,25.98
2018-03-28T00:27:59.434Z,25.37
2018-03-28T00:29:01.961Z,27.30
2018-03-28T00:30:05.251Z,27.58
2018-03-28T00:31:07.773Z,25.75
2018-03-28T00:32:10.331Z,27.05
2018-03-28T00:33:12.867Z,27.60
2018-03-28T00:34:15.384Z,28.20
2018-03-28T00:35:17.922Z,26.08
2018-03-28T00:36:20.488Z,27.27
2018-03-28T00:37:23.016Z,27.27
2018-03-28T00:38:25.556Z,27.33
2018-03-28T00:39:28.849Z,26.55
2018-03-28T00:40:32.137Z,25.62
2018-03-28T00:41:35.455Z,28.50
2018-03-28T00:42:37.989Z,27.75
2018-03-28T00:43:41.375Z,27.85
2018-03-28T00:44:44.714Z,27.37
2018-03-28T00:45:47.241Z,28.50
2018-03-28T00:46:49.778Z,28.00
2018-03-28T00:47:52.297Z,27.90
2018-03-28T00:48:54.817Z,27.13
2018-03-28T00:49:58.141Z,26.85
2018-03-28T00:51:13.450Z,27.80
2018-03-28T00:52:16.761Z,27.70
2018-03-28T00:53:20.058Z,27.02
2018-03-28T00:54:22.639Z,27.92
2018-03-28T00:55:25.199Z,28.38
2018-03-28T00:56:27.766Z,28.20
2018-03-28T00:57:30.292Z,26.73
2018-03-28T00:58:32.805Z,28.15
2018-03-28T00:59:35.346Z,26.40
2018-03-28T01:00:38.647Z,27.42
2018-03-28T01:01:41.161Z,27.95
2018-03-28T01:02:43.684Z,26.27
2018-03-28T01:03:46.202Z,27.13
2018-03-28T01:04:48.757Z,27.50
2018-03-28T01:05:51.309Z,28.15
2018-03-28T01:06:53.847Z,24.98
2018-03-28T01:07:56.361Z,27.40
2018-03-28T01:08:58.877Z,27.05
2018-03-28T01:10:01.433Z,28.65
2018-03-28T01:11:03.992Z,27.17
2018-03-28T01:12:07.290Z,28.27
2018-03-28T01:13:09.814Z,26.12
2018-03-28T01:14:13.120Z,26.20
2018-03-28T01:15:16.420Z,26.08
2018-03-28T01:16:18.996Z,27.13
2018-03-28T01:17:21.529Z,28.30
2018-03-28T01:18:24.820Z,26.37
2018-03-28T01:19:28.118Z,27.55
2018-03-28T01:20:30.679Z,27.70
2018-03-28T01:21:33.210Z,25.80
2018-03-28T01:22:35.746Z,27.10
2018-03-28T01:23:38.282Z,28.02
2018-03-28T01:24:40.819Z,26.25
2018-03-28T01:25:43.389Z,26.05
2018-03-28T01:26:46.695Z,28.30
2018-03-28T01:27:50.030Z,28.48
2018-03-28T01:28:52.555Z,28.38
2018-03-28T01:29:55.087Z,27.40
2018-03-28T01:30:57.612Z,26.42
2018-03-28T01:32:00.139Z,28.23
2018-03-28T01:33:03.476Z,29.27
2018-03-28T01:34:06.000Z,27.87
2018-03-28T01:35:08.515Z,27.25
2018-03-28T01:36:11.038Z,27.83
2018-03-28T01:37:13.560Z,27.35
2018-03-28T01:38:16.110Z,26.48
2018-03-28T01:39:19.430Z,28.67
2018-03-28T01:40:22.718Z,25.67
2018-03-28T01:41:26.019Z,28.70
2018-03-28T01:42:28.585Z,27.42
2018-03-28T01:43:31.267Z,28.02
2018-03-28T01:44:33.792Z,29.63
2018-03-28T01:45:36.314Z,30.00
2018-03-28T01:46:38.837Z,28.30
2018-03-28T01:47:42.178Z,28.50
2018-03-28T01:48:44.697Z,27.98
2018-03-28T01:49:47.229Z,28.90
2018-03-28T01:50:49.752Z,26.80
2018-03-28T01:51:52.277Z,27.67
2018-03-28T01:52:55.596Z,27.08
2018-03-28T01:53:58.123Z,28.17
2018-03-28T01:55:01.420Z,28.77
2018-03-28T01:56:04.701Z,29.40
2018-03-28T01:57:07.986Z,27.17
2018-03-28T01:58:11.330Z,28.33
2018-03-28T01:59:13.858Z,28.62
2018-03-28T02:00:16.380Z,26.25
2018-03-28T02:01:18.896Z,28.40
2018-03-28T02:02:21.424Z,28.35
2018-03-28T02:03:24.757Z,26.90
2018-03-28T02:04:27.268Z,26.85
2018-03-28T02:05:29.846Z,28.67
2018-03-28T02:06:33.133Z,28.65
2018-03-28T02:07:36.448Z,27.65
2018-03-28T02:08:39.023Z,27.42
2018-03-28T02:09:41.544Z,25.90
2018-03-28T02:10:44.840Z,28.70
2018-03-28T02:11:48.125Z,28.02
2018-03-28T02:12:51.418Z,26.85
2018-03-28T02:13:53.977Z,27.13
2018-03-28T02:14:56.539Z,28.00
2018-03-28T02:15:59.830Z,25.85
2018-03-28T02:17:02.363Z,27.42
2018-03-28T02:18:04.895Z,26.92
2018-03-28T02:19:07.453Z,25.52
2018-03-28T02:20:09.982Z,28.02
2018-03-28T02:21:13.281Z,24.75
2018-03-28T02:22:15.843Z,24.63
2018-03-28T02:23:19.133Z,26.25
2018-03-28T02:24:21.658Z,24.40
2018-03-28T02:25:24.185Z,24.70
2018-03-28T02:26:26.789Z,26.40
2018-03-28T02:27:29.319Z,23.73
2018-03-28T02:28:31.838Z,23.50
2018-03-28T02:29:34.440Z,25.92
2018-03-28T02:30:36.955Z,25.80
2018-03-28T02:31:39.504Z,24.30
2018-03-28T02:32:42.067Z,24.20
2018-03-28T02:33:44.597Z,23.38
2018-03-28T02:34:47.124Z,24.48
2018-03-28T02:35:49.641Z,23.38
2018-03-28T02:36:52.159Z,22.10
2018-03-28T02:37:54.725Z,23.50
2018-03-28T02:38:57.254Z,23.75
2018-03-28T02:39:59.810Z,24.92
2018-03-28T02:41:02.349Z,22.33
2018-03-28T02:42:05.646Z,22.87
2018-03-28T02:43:08.201Z,23.42
2018-03-28T02:44:11.491Z,23.12
2018-03-28T02:45:14.028Z,23.58
2018-03-28T02:46:16.578Z,22.33
2018-03-28T02:47:19.140Z,24.08
2018-03-28T02:48:21.661Z,23.50
2018-03-28T02:49:24.182Z,22.70
2018-03-28T02:50:26.714Z,22.58
2018-03-28T02:51:30.011Z,21.67
2018-03-28T02:52:32.572Z,24.05
2018-03-28T02:53:35.097Z,22.48
2018-03-28T02:54:38.376Z,23.38
2018-03-28T02:55:41.673Z,24.10
2018-03-28T02:56:44.245Z,23.10
2018-03-28T02:57:46.799Z,23.95
2018-03-28T02:58:49.321Z,23.08
2018-03-28T02:59:51.841Z,23.45
2018-03-28T03:00:54.368Z,23.95
2018-03-28T03:01:56.901Z,23.60
2018-03-28T03:02:59.452Z,24.25
2018-03-28T03:04:02.005Z,21.52
2018-03-28T03:05:04.562Z,24.70
2018-03-28T03:06:07.851Z,24.55
2018-03-28T03:07:10.382Z,23.67
2018-03-28T03:08:12.916Z,24.58
2018-03-28T03:09:15.474Z,23.55
2018-03-28T03:10:18.000Z,25.42
2018-03-28T03:11:21.284Z,26.00
2018-03-28T03:12:24.570Z,24.80
2018-03-28T03:13:27.854Z,26.00
2018-03-28T03:14:31.181Z,25.73
2018-03-28T03:15:34.499Z,24.23
2018-03-28T03:16:37.027Z,25.67
2018-03-28T03:17:39.542Z,24.48
2018-03-28T03:18:42.065Z,24.70
2018-03-28T03:19:44.600Z,25.70
2018-03-28T03:20:47.152Z,23.62
2018-03-28T03:21:50.481Z,25.20
2018-03-28T03:22:53.006Z,24.90
2018-03-28T03:23:56.289Z,25.58
2018-03-28T03:24:59.578Z,25.50
2018-03-28T03:26:02.918Z,23.40
2018-03-28T03:27:05.432Z,24.02
2018-03-28T03:28:07.968Z,25.40
2018-03-28T03:29:10.492Z,24.00
2018-03-28T03:30:13.014Z,23.35
2018-03-28T03:31:16.343Z,26.52
2018-03-28T03:32:18.905Z,25.12
2018-03-28T03:33:21.424Z,24.25
2018-03-28T03:34:23.950Z,26.02
2018-03-28T03:35:26.503Z,24.05
2018-03-28T03:36:29.034Z,23.67
2018-03-28T03:37:32.325Z,23.67
2018-03-28T03:38:35.627Z,23.92
2018-03-28T03:39:38.262Z,23.92
2018-03-28T03:40:41.612Z,23.52
2018-03-28T03:41:44.142Z,22.83
2018-03-28T03:42:46.679Z,23.75
2018-03-28T03:43:49.985Z,22.92
2018-03-28T03:44:52.513Z,22.83
2018-03-28T03:45:55.182Z,24.25
2018-03-28T03:46:57.699Z,23.87
2018-03-28T03:48:00.224Z,22.95
2018-03-28T03:49:02.750Z,22.67
2018-03-28T03:50:05.279Z,22.65
2018-03-28T03:51:08.602Z,22.23
2018-03-28T03:52:11.124Z,22.15
2018-03-28T03:53:14.409Z,22.25
2018-03-28T03:54:17.705Z,23.05
2018-03-28T03:55:20.226Z,21.25
2018-03-28T03:56:22.776Z,21.40
2018-03-28T03:57:25.301Z,22.92
2018-03-28T03:58:27.861Z,23.17
2018-03-28T03:59:31.145Z,23.35
2018-03-28T04:00:33.700Z,22.75
2018-03-28T04:01:36.988Z,23.38
2018-03-28T04:02:40.335Z,22.25
2018-03-28T04:03:42.891Z,22.73
2018-03-28T04:04:45.414Z,23.02
2018-03-28T04:05:48.701Z,23.10
2018-03-28T04:06:51.233Z,23.45
2018-03-28T04:07:53.794Z,22.05
2018-03-28T04:08:56.365Z,22.67
2018-03-28T04:09:58.880Z,20.52
2018-03-28T04:11:01.430Z,22.70
2018-03-28T04:12:03.952Z,24.60
2018-03-28T04:13:06.477Z,21.95
2018-03-28T04:14:09.039Z,24.05
2018-03-28T04:15:11.553Z,24.30
2018-03-28T04:16:14.078Z,25.77
2018-03-28T04:17:16.599Z,23.65
2018-03-28T04:18:19.453Z,23.48
2018-03-28T04:19:22.022Z,24.33
2018-03-28T04:20:24.547Z,24.30
2018-03-28T04:21:27.067Z,23.80
2018-03-28T04:22:29.593Z,25.40
2018-03-28T04:23:32.121Z,24.58
2018-03-28T04:24:35.440Z,24.77
2018-03-28T04:25:37.964Z,23.10
2018-03-28T04:26:41.261Z,23.87
2018-03-28T04:27:44.544Z,25.55
2018-03-28T04:28:47.833Z,24.23
2018-03-28T04:29:50.398Z,23.67
2018-03-28T04:30:52.921Z,24.17
2018-03-28T04:31:55.442Z,23.90
2018-03-28T04:32:57.966Z,24.98
2018-03-28T04:34:00.490Z,23.90
2018-03-28T04:35:03.079Z,23.15
2018-03-28T04:36:05.600Z,24.20
2018-03-28T04:37:08.131Z,22.58
2018-03-28T04:38:10.661Z,23.58
2018-03-28T04:39:13.194Z,22.83
2018-03-28T04:40:15.753Z,22.70
2018-03-28T04:41:19.091Z,24.45
2018-03-28T04:42:21.609Z,23.12
2018-03-28T04:43:24.140Z,25.20
2018-03-28T04:44:26.656Z,25.30
2018-03-28T04:45:29.183Z,24.60
2018-03-28T04:46:31.741Z,23.02
2018-03-28T04:47:34.258Z,22.80
2018-03-28T04:48:36.771Z,24.77
2018-03-28T04:49:39.293Z,22.73
2018-03-28T04:50:41.865Z,22.20
2018-03-28T04:51:44.398Z,23.35
2018-03-28T04:52:47.686Z,23.02
2018-03-28T04:53:50.230Z,24.23
2018-03-28T04:54:53.517Z,24.87
2018-03-28T04:55:56.834Z,22.62
2018-03-28T04:56:59.356Z,23.35
2018-03-28T04:58:01.886Z,21.25
2018-03-28T04:59:04.421Z,22.80
2018-03-28T05:00:06.950Z,22.33
2018-03-28T05:01:09.469Z,22.87
2018-03-28T05:02:11.995Z,23.52
2018-03-28T05:03:15.286Z,22.98
2018-03-28T05:04:18.661Z,21.37
2018-03-28T05:05:21.180Z,19.90
2018-03-28T05:06:23.734Z,21.83
2018-03-28T05:07:26.265Z,20.80
2018-03-28T05:08:29.593Z,22.62
2018-03-28T05:09:32.124Z,23.23
2018-03-28T05:10:35.410Z,22.27
2018-03-28T05:11:38.689Z,23.52
2018-03-28T05:12:42.017Z,22.42
2018-03-28T05:13:44.549Z,22.58
2018-03-28T05:14:47.100Z,21.85
2018-03-28T05:15:50.404Z,23.00
2018-03-28T05:16:52.933Z,21.20
2018-03-28T05:17:55.497Z,23.50
2018-03-28T05:18:58.022Z,21.50
2018-03-28T05:20:00.584Z,23.87
2018-03-28T05:21:03.107Z,22.10
2018-03-28T05:22:05.634Z,21.40
2018-03-28T05:23:08.185Z,21.95
2018-03-28T05:24:10.744Z,21.62
2018-03-28T05:25:13.297Z,22.48
2018-03-28T05:26:15.823Z,20.85
2018-03-28T05:27:18.344Z,21.90
2018-03-28T05:28:20.890Z,19.83
2018-03-28T05:29:24.198Z,22.08
2018-03-28T05:30:26.754Z,20.48
2018-03-28T05:31:29.301Z,21.17
2018-03-28T05:32:32.610Z,21.00
2018-03-28T05:33:35.133Z,21.08
2018-03-28T05:34:37.693Z,21.73
2018-03-28T05:35:40.219Z,21.70
2018-03-28T05:36:42.767Z,21.55
2018-03-28T05:37:45.309Z,20.90
2018-03-28T05:38:48.654Z,22.42
2018-03-28T05:39:51.169Z,22.00
2018-03-28T05:40:54.467Z,20.08
2018-03-28T05:41:56.995Z,22.05
2018-03-28T05:42:59.566Z,20.90
2018-03-28T05:44:02.125Z,22.73
2018-03-28T05:45:04.644Z,21.40
2018-03-28T05:46:07.163Z,22.35
2018-03-28T05:47:09.696Z,21.87
2018-03-28T05:48:12.226Z,20.70
2018-03-28T05:49:14.789Z,21.10
2018-03-28T05:50:18.122Z,21.33
2018-03-28T05:51:20.626Z,22.75
2018-03-28T05:52:23.923Z,21.55
2018-03-28T05:53:27.212Z,21.55
2018-03-28T05:54:29.826Z,20.40
2018-03-28T05:55:32.330Z,20.67
2018-03-28T05:56:35.619Z,19.75
2018-03-28T05:57:38.946Z,19.85
2018-03-28T05:58:41.468Z,21.02
2018-03-28T05:59:44.820Z,19.58
2018-03-28T06:00:47.348Z,20.37
2018-03-28T06:01:49.888Z,19.58
2018-03-28T06:02:53.189Z,20.60
2018-03-28T06:03:55.715Z,19.87
2018-03-28T06:04:58.252Z,19.55
2018-03-28T06:06:00.818Z,20.23
2018-03-28T06:07:03.346Z,20.75
2018-03-28T06:08:05.899Z,21.12
2018-03-28T06:09:09.185Z,19.45
2018-03-28T06:10:12.475Z,18.37
2018-03-28T06:11:15.799Z,19.00
2018-03-28T06:12:18.324Z,19.83
2018-03-28T06:13:21.603Z,19.20
2018-03-28T06:14:24.906Z,19.17
2018-03-28T06:15:27.455Z,18.15
2018-03-28T06:16:30.785Z,19.73
2018-03-28T06:17:33.312Z,17.75
2018-03-28T06:18:35.833Z,18.35
2018-03-28T06:19:38.366Z,18.92
2018-03-28T06:20:40.896Z,17.98
2018-03-28T06:21:44.213Z,19.15
2018-03-28T06:22:46.770Z,19.20
2018-03-28T06:23:49.299Z,19.17
2018-03-28T06:24:51.840Z,19.67
2018-03-28T06:25:54.373Z,19.50
2018-03-28T06:26:56.929Z,18.20
2018-03-28T06:27:59.459Z,18.83
2018-03-28T06:29:01.985Z,19.52
2018-03-28T06:30:04.505Z,19.50
2018-03-28T06:31:08.059Z,18.77
2018-03-28T06:32:10.583Z,18.92
2018-03-28T06:33:13.112Z,19.62
2018-03-28T06:34:15.642Z,18.95
2018-03-28T06:35:18.157Z,19.02
2018-03-28T06:36:20.697Z,20.80
2018-03-28T06:37:23.254Z,20.00
2018-03-28T06:38:25.769Z,20.55
2018-03-28T06:39:29.096Z,20.50
2018-03-28T06:40:31.641Z,20.70
2018-03-28T06:41:34.165Z,21.15
2018-03-28T06:42:37.477Z,19.83
2018-03-28T06:43:40.044Z,19.48
2018-03-28T06:44:42.572Z,20.27
2018-03-28T06:45:45.098Z,20.20
2018-03-28T06:46:47.817Z,20.45
2018-03-28T06:47:50.345Z,21.17
2018-03-28T06:48:52.862Z,20.15
2018-03-28T06:49:56.149Z,21.62
2018-03-28T06:50:59.436Z,21.10
2018-03-28T06:52:02.756Z,21.75
2018-03-28T06:53:05.366Z,20.23
2018-03-28T06:54:07.888Z,22.48
2018-03-28T06:55:10.433Z,18.87
2018-03-28T06:56:12.988Z,20.95
2018-03-28T06:57:16.301Z,20.17
2018-03-28T06:58:18.825Z,20.08
2018-03-28T06:59:22.122Z,20.98
2018-03-28T07:00:25.445Z,21.52
2018-03-28T07:01:27.965Z,21.85
2018-03-28T07:02:31.257Z,21.48
2018-03-28T07:03:34.547Z,20.20
2018-03-28T07:04:37.069Z,21.58
2018-03-28T07:05:39.646Z,21.45
2018-03-28T07:06:42.173Z,20.85
2018-03-28T07:07:44.692Z,21.87
2018-03-28T07:08:47.998Z,19.60
2018-03-28T07:09:50.525Z,22.27
2018-03-28T07:10:53.094Z,21.65
2018-03-28T07:11:55.608Z,21.33
2018-03-28T07:12:58.137Z,22.33
2018-03-28T07:14:00.654Z,20.25
2018-03-28T07:15:03.181Z,21.62
2018-03-28T07:16:06.505Z,20.67
2018-03-28T07:17:09.033Z,21.20
2018-03-28T07:18:12.334Z,23.27
2018-03-28T07:19:14.854Z,22.65
2018-03-28T07:20:17.378Z,22.13
2018-03-28T07:21:19.940Z,21.92
2018-03-28T07:22:22.460Z,21.58
2018-03-28T07:23:24.977Z,21.48
2018-03-28T07:24:27.504Z,23.20
2018-03-28T07:25:30.799Z,21.62
2018-03-28T07:26:34.110Z,21.60
2018-03-28T07:27:36.635Z,21.00
2018-03-28T07:28:39.183Z,22.30
2018-03-28T07:29:42.508Z,21.67
2018-03-28T07:30:45.034Z,23.00
2018-03-28T07:31:47.562Z,22.08
2018-03-28T07:32:50.081Z,21.40
2018-03-28T07:33:53.405Z,22.77
2018-03-28T07:34:55.930Z,21.62
2018-03-28T07:35:58.448Z,21.30
2018-03-28T07:37:00.972Z,20.77
2018-03-28T07:38:04.320Z,21.40
2018-03-28T07:39:06.868Z,21.87
2018-03-28T07:40:09.400Z,22.17
2018-03-28T07:41:12.706Z,22.95
2018-03-28T07:42:15.237Z,24.25
2018-03-28T07:43:18.526Z,25.62
2018-03-28T07:44:21.814Z,22.23
2018-03-28T07:45:25.110Z,22.65
2018-03-28T07:46:27.655Z,22.58
2018-03-28T07:47:30.936Z,23.40
2018-03-28T07:48:34.269Z,21.17
2018-03-28T07:49:36.796Z,22.73
2018-03-28T07:50:39.365Z,22.23
2018-03-28T07:51:42.688Z,22.73
2018-03-28T07:52:45.216Z,21.95
2018-03-28T07:53:48.536Z,21.73
2018-03-28T07:54:51.059Z,21.15
2018-03-28T07:55:54.389Z,21.98
2018-03-28T07:56:56.914Z,23.25
2018-03-28T07:58:00.201Z,22.37
2018-03-28T07:59:03.489Z,22.73
2018-03-28T08:00:06.022Z,22.77
2018-03-28T08:01:08.568Z,21.35
2018-03-28T08:02:11.133Z,20.25
2018-03-28T08:03:13.682Z,22.13
2018-03-28T08:04:16.266Z,20.95
2018-03-28T08:05:18.796Z,21.83
2018-03-28T08:06:21.320Z,20.95
2018-03-28T08:07:23.837Z,23.58
2018-03-28T08:08:26.404Z,21.40
2018-03-28T08:09:28.923Z,21.65
2018-03-28T08:10:31.442Z,20.33
2018-03-28T08:11:33.977Z,20.70
2018-03-28T08:12:37.266Z,32.30
2018-03-28T08:13:39.830Z,22.77
2018-03-28T08:14:43.114Z,31.77
2018-03-28T08:15:46.401Z,34.05
2018-03-28T08:16:48.929Z,30.50
2018-03-28T08:17:51.453Z,25.35
2018-03-28T08:18:54.009Z,24.90
2018-03-28T08:19:56.534Z,25.85
2018-03-28T08:20:59.055Z,20.85
2018-03-28T08:22:01.617Z,21.87
2018-03-28T08:23:04.142Z,20.55
2018-03-28T08:24:07.435Z,22.13
2018-03-28T08:25:10.754Z,22.33
2018-03-28T08:26:13.325Z,20.77
2018-03-28T08:27:15.846Z,20.90
2018-03-28T08:28:18.368Z,20.80
2018-03-28T08:29:21.663Z,19.90
2018-03-28T08:30:24.200Z,21.20
2018-03-28T08:31:26.762Z,19.30
2018-03-28T08:32:29.303Z,20.27
2018-03-28T08:33:32.587Z,19.45
2018-03-28T08:34:35.905Z,20.90
2018-03-28T08:35:38.448Z,21.60
2018-03-28T08:36:41.743Z,20.83
2018-03-28T08:37:44.272Z,21.02
2018-03-28T08:38:46.789Z,20.65
2018-03-28T08:39:49.401Z,22.58
2018-03-28T08:40:51.956Z,20.10
2018-03-28T08:41:54.549Z,22.67
2018-03-28T08:42:57.882Z,21.17
2018-03-28T08:44:00.402Z,21.00
2018-03-28T08:45:03.722Z,20.60
2018-03-28T08:46:06.247Z,21.42
2018-03-28T08:47:09.546Z,21.55
2018-03-28T08:48:12.864Z,20.62
2018-03-28T08:49:15.414Z,23.40
2018-03-28T08:50:17.960Z,20.27
2018-03-28T08:51:21.279Z,19.15
2018-03-28T08:52:23.808Z,19.67
2018-03-28T08:53:27.102Z,19.40
2018-03-28T08:54:30.393Z,18.17
2018-03-28T08:55:32.930Z,20.65
2018-03-28T08:56:35.486Z,19.83
2018-03-28T08:57:38.004Z,21.50
2018-03-28T08:58:40.531Z,20.23
2018-03-28T08:59:43.062Z,19.85
2018-03-28T09:00:45.621Z,19.33
2018-03-28T09:01:48.150Z,17.98
2018-03-28T09:02:50.672Z,19.35
2018-03-28T09:03:53.196Z,18.60
2018-03-28T09:04:55.751Z,18.17
2018-03-28T09:05:58.280Z,18.62
2018-03-28T09:07:00.850Z,19.90
2018-03-28T09:08:04.185Z,20.33
2018-03-28T09:09:06.701Z,18.70
2018-03-28T09:10:09.260Z,18.23
2018-03-28T09:11:11.814Z,17.85
2018-03-28T09:12:14.373Z,18.87
2018-03-28T09:13:16.893Z,17.40
2018-03-28T09:14:20.187Z,17.70
2018-03-28T09:15:22.715Z,18.83
2018-03-28T09:16:25.226Z,17.42
2018-03-28T09:17:27.794Z,17.95
2018-03-28T09:18:30.331Z,16.48
2018-03-28T09:19:33.630Z,18.25
2018-03-28T09:20:36.154Z,18.90
2018-03-28T09:21:38.671Z,17.65
2018-03-28T09:22:41.232Z,17.83
2018-03-28T09:23:43.754Z,19.02
2018-03-28T09:24:46.275Z,19.27
2018-03-28T09:25:48.788Z,18.02
2018-03-28T09:26:51.312Z,17.87
2018-03-28T09:27:53.891Z,17.40
2018-03-28T09:28:56.412Z,18.85
2018-03-28T09:29:59.695Z,19.25
2018-03-28T09:31:02.978Z,19.17
2018-03-28T09:32:06.271Z,16.67
2018-03-28T09:33:09.585Z,17.90
2018-03-28T09:34:12.109Z,18.33
2018-03-28T09:35:15.393Z,18.65
2018-03-28T09:36:18.714Z,19.67
2018-03-28T09:37:21.230Z,18.17
2018-03-28T09:38:23.756Z,17.40
2018-03-28T09:39:26.306Z,18.75
2018-03-28T09:40:28.830Z,18.52
2018-03-28T09:41:31.349Z,18.75
2018-03-28T09:42:33.883Z,19.48
2018-03-28T09:43:36.446Z,18.00
2018-03-28T09:44:39.738Z,19.02
2018-03-28T09:45:42.268Z,18.10
2018-03-28T09:46:44.785Z,19.10
2018-03-28T09:47:47.338Z,17.42
2018-03-28T09:48:49.865Z,19.08
2018-03-28T09:49:52.385Z,17.58
2018-03-28T09:50:54.905Z,18.35
2018-03-28T09:51:57.473Z,20.23
2018-03-28T09:52:59.996Z,18.35
2018-03-28T09:54:02.515Z,18.40
2018-03-28T09:55:05.797Z,19.17
2018-03-28T09:56:09.086Z,18.20
2018-03-28T09:57:12.409Z,19.70
2018-03-28T09:58:14.929Z,19.27
2018-03-28T09:59:18.208Z,18.75
2018-03-28T10:00:26.011Z,18.95
2018-03-28T10:01:30.104Z,18.58
2018-03-28T10:02:48.306Z,19.30
2018-03-28T10:03:50.825Z,18.85
2018-03-28T10:04:53.357Z,21.12
2018-03-28T10:05:55.916Z,19.62
2018-03-28T10:06:58.435Z,17.87
2018-03-28T10:08:00.962Z,17.67
2018-03-28T10:09:04.274Z,18.12
2018-03-28T10:10:06.849Z,18.50
2018-03-28T10:11:09.369Z,18.35
2018-03-28T10:12:11.926Z,18.20
2018-03-28T10:13:14.487Z,18.85
2018-03-28T10:14:17.009Z,18.92
2018-03-28T10:15:19.525Z,19.15
2018-03-28T10:16:22.045Z,18.98
2018-03-28T10:17:24.602Z,18.37
2018-03-28T10:18:27.118Z,19.08
2018-03-28T10:19:29.649Z,19.08
2018-03-28T10:20:32.200Z,19.55
2018-03-28T10:21:35.494Z,18.92
2018-03-28T10:22:38.044Z,18.75
2018-03-28T10:23:41.337Z,17.10
2018-03-28T10:24:43.862Z,17.62
2018-03-28T10:25:46.421Z,18.67
2018-03-28T10:26:48.942Z,20.05
2018-03-28T10:27:51.458Z,18.95
2018-03-28T10:28:54.003Z,17.77
2018-03-28T10:29:56.523Z,17.73
2018-03-28T10:30:59.830Z,19.95
2018-03-28T10:32:02.362Z,18.37
2018-03-28T10:33:05.697Z,18.42
2018-03-28T10:34:08.219Z,17.75
2018-03-28T10:35:11.543Z,16.37
2018-03-28T10:36:14.074Z,15.48
2018-03-28T10:37:17.357Z,15.07
2018-03-28T10:38:20.680Z,14.65
2018-03-28T10:39:23.205Z,15.40
2018-03-28T10:40:26.522Z,14.65
2018-03-28T10:41:29.045Z,14.70
2018-03-28T10:42:31.565Z,12.98
2018-03-28T10:43:34.077Z,13.62
2018-03-28T10:44:37.366Z,14.30
2018-03-28T10:45:40.675Z,13.48
2018-03-28T10:46:43.202Z,13.73
2018-03-28T10:47:45.732Z,13.88
2018-03-28T10:48:48.250Z,13.85
2018-03-28T10:49:51.537Z,12.37
2018-03-28T10:50:54.862Z,13.20
2018-03-28T10:51:57.462Z,12.13
2018-03-28T10:52:59.990Z,11.23
2018-03-28T10:54:02.511Z,11.80
2018-03-28T10:55:05.845Z,12.35
2018-03-28T10:56:08.375Z,12.50
2018-03-28T10:57:11.666Z,13.62
2018-03-28T10:58:14.190Z,14.25
2018-03-28T10:59:16.720Z,13.02
2018-03-28T11:00:19.283Z,12.25
2018-03-28T11:01:21.820Z,13.15
2018-03-28T11:02:25.105Z,13.00
2018-03-28T11:03:28.393Z,11.90
2018-03-28T11:04:31.704Z,12.20
2018-03-28T11:05:34.270Z,12.60
2018-03-28T11:06:36.801Z,11.75
2018-03-28T11:07:40.094Z,12.37
2018-03-28T11:08:43.384Z,11.55
2018-03-28T11:09:45.912Z,11.73
2018-03-28T11:10:48.485Z,11.32
2018-03-28T11:11:51.015Z,11.68
2018-03-28T11:12:53.541Z,12.13
2018-03-28T11:13:56.073Z,12.68
2018-03-28T11:14:58.596Z,12.05
2018-03-28T11:16:01.157Z,11.77
2018-03-28T11:17:03.680Z,11.63
2018-03-28T11:18:06.208Z,11.50
2018-03-28T11:19:08.860Z,12.77
2018-03-28T11:20:11.381Z,11.32
2018-03-28T11:21:13.936Z,12.88
2018-03-28T11:22:16.459Z,11.43
2018-03-28T11:23:19.014Z,11.50
2018-03-28T11:24:21.539Z,11.90
2018-03-28T11:25:24.214Z,13.55
2018-03-28T11:26:26.744Z,12.88
2018-03-28T11:27:29.273Z,12.40
2018-03-28T11:28:32.593Z,12.63
2018-03-28T11:29:35.110Z,10.68
2018-03-28T11:30:38.418Z,10.00
2018-03-28T11:31:40.947Z,9.00
2018-03-28T11:32:43.469Z,10.30
2018-03-28T11:33:45.989Z,9.25
2018-03-28T11:34:49.278Z,9.90
2018-03-28T11:35:52.597Z,10.63
2018-03-28T11:36:55.117Z,10.15
2018-03-28T11:37:57.704Z,10.15
2018-03-28T11:39:00.178Z,9.50
2018-03-28T11:40:02.710Z,10.70
2018-03-28T11:41:05.283Z,8.90
2018-03-28T11:42:07.794Z,9.68
2018-03-28T11:43:10.319Z,9.63
2018-03-28T11:44:13.598Z,10.00
2018-03-28T11:45:16.118Z,9.93
2018-03-28T11:46:18.674Z,9.07
2018-03-28T11:47:21.193Z,10.05
2018-03-28T11:48:23.715Z,9.95
2018-03-28T11:49:26.281Z,9.85
2018-03-28T11:50:28.805Z,11.35
2018-03-28T11:51:32.089Z,9.80
2018-03-28T11:52:35.382Z,9.77
2018-03-28T11:53:38.675Z,10.48
2018-03-28T11:54:41.230Z,10.35
2018-03-28T11:55:43.748Z,11.23
2018-03-28T11:56:46.273Z,10.35
2018-03-28T11:57:48.833Z,9.60
2018-03-28T11:58:51.374Z,9.65
2018-03-28T11:59:53.896Z,10.23
2018-03-28T12:00:56.418Z,9.32
2018-03-28T12:01:59.731Z,11.07
2018-03-28T12:03:02.249Z,10.70
2018-03-28T12:04:04.889Z,10.75
2018-03-28T12:05:07.418Z,10.23
2018-03-28T12:06:09.935Z,9.77
2018-03-28T12:07:12.499Z,9.35
2018-03-28T12:08:15.024Z,10.27
2018-03-28T12:09:17.550Z,10.32
2018-03-28T12:10:20.075Z,9.95
2018-03-28T12:11:22.606Z,10.43
2018-03-28T12:12:25.932Z,11.00
2018-03-28T12:13:28.469Z,10.18
2018-03-28T12:14:30.995Z,10.60
2018-03-28T12:15:33.513Z,9.55
2018-03-28T12:16:36.116Z,9.95
2018-03-28T12:17:38.599Z,10.00
2018-03-28T12:18:41.145Z,10.70
2018-03-28T12:19:43.671Z,11.50
2018-03-28T12:20:46.189Z,9.25
2018-03-28T12:21:48.702Z,10.10
2018-03-28T12:22:51.255Z,10.80
2018-03-28T12:23:54.545Z,9.35
2018-03-28T12:24:57.062Z,10.15
2018-03-28T12:25:59.587Z,9.80
2018-03-28T12:27:02.126Z,9.75
2018-03-28T12:28:05.440Z,10.27
2018-03-28T12:29:07.951Z,9.98
2018-03-28T12:30:10.481Z,10.30
2018-03-28T12:31:13.071Z,10.15
2018-03-28T12:32:15.641Z,11.63
2018-03-28T12:33:18.169Z,10.50
2018-03-28T12:34:20.698Z,11.50
2018-03-28T12:35:23.228Z,11.20
2018-03-28T12:36:25.763Z,10.52
2018-03-28T12:37:28.339Z,8.98
2018-03-28T12:38:30.905Z,10.00
2018-03-28T12:39:33.434Z,10.52
2018-03-28T12:40:36.724Z,8.60
2018-03-28T12:41:40.024Z,9.82
2018-03-28T12:42:42.544Z,10.82
2018-03-28T12:43:45.092Z,10.25
2018-03-28T12:44:47.626Z,9.88
2018-03-28T12:45:50.318Z,10.45
2018-03-28T12:46:52.847Z,9.88
2018-03-28T12:47:56.134Z,9.27
2018-03-28T12:48:58.722Z,9.32
2018-03-28T12:50:01.345Z,9.55
2018-03-28T12:51:04.580Z,10.30
2018-03-28T12:52:07.198Z,10.55
2018-03-28T12:53:09.651Z,10.15
2018-03-28T12:54:12.362Z,10.18
2018-03-28T12:55:14.896Z,10.15
2018-03-28T12:56:17.319Z,9.98
2018-03-28T12:57:19.853Z,10.25
2018-03-28T12:58:22.388Z,10.40
2018-03-28T12:59:24.949Z,10.45
2018-03-28T13:00:27.480Z,10.50
2018-03-28T13:01:30.002Z,10.35
2018-03-28T13:02:33.357Z,10.20
2018-03-28T13:03:35.842Z,9.18
2018-03-28T13:04:38.416Z,10.23
2018-03-28T13:05:41.700Z,9.52
2018-03-28T13:06:44.984Z,9.98
2018-03-28T13:07:48.290Z,9.32
2018-03-28T13:08:50.809Z,9.93
2018-03-28T13:09:53.376Z,9.38
2018-03-28T13:10:55.899Z,9.52
2018-03-28T13:11:58.456Z,10.75
2018-03-28T13:13:00.985Z,9.80
2018-03-28T13:14:03.532Z,10.32
2018-03-28T13:15:06.100Z,10.40
2018-03-28T13:16:08.642Z,10.93
2018-03-28T13:17:11.171Z,10.20
2018-03-28T13:18:14.457Z,10.32
2018-03-28T13:19:17.737Z,9.32
2018-03-28T13:20:21.081Z,11.05
2018-03-28T13:21:23.638Z,9.32
2018-03-28T13:22:26.184Z,9.73
2018-03-28T13:23:28.712Z,9.90
2018-03-28T13:24:32.006Z,9.73
2018-03-28T13:25:35.309Z,11.15
2018-03-28T13:26:37.861Z,10.40
2018-03-28T13:27:40.385Z,9.38
2018-03-28T13:28:42.934Z,9.80
2018-03-28T13:29:45.466Z,10.65
2018-03-28T13:30:48.025Z,9.88